createdAt,value
2022-12-25T00:00:55.563Z,26.03
2022-12-25T00:03:22.120Z,27.20
2022-12-25T00:05:48.821Z,30.43
2022-12-25T00:08:15.383Z,32.93
2022-12-25T00:10:45.331Z,39.33
2022-12-25T00:13:12.413Z,37.30
2022-12-25T00:15:42.070Z,41.60
2022-12-25T00:18:08.660Z,39.87
2022-12-25T00:20:35.244Z,37.37
2022-12-25T00:23:01.748Z,35.10
2022-12-25T00:25:28.184Z,35.77
2022-12-25T00:27:54.701Z,36.80
2022-12-25T00:30:21.146Z,42.10
2022-12-25T00:32:47.667Z,38.00
2022-12-25T00:35:14.325Z,43.43
2022-12-25T00:37:40.799Z,44.67
2022-12-25T00:40:07.615Z,39.43
2022-12-25T00:42:34.217Z,35.57
2022-12-25T00:45:01.589Z,64.17
2022-12-25T00:47:28.195Z,66.30
2022-12-25T00:49:55.368Z,56.67
2022-12-25T00:52:21.813Z,48.80
2022-12-25T00:54:48.347Z,41.97
2022-12-25T00:57:14.868Z,41.83
2022-12-25T00:59:41.402Z,44.07
2022-12-25T01:02:23.616Z,41.03
2022-12-25T01:04:51.360Z,34.00
2022-12-25T01:07:18.066Z,33.93
2022-12-25T01:10:11.451Z,40.30
2022-12-25T01:12:40.099Z,48.20
2022-12-25T01:15:07.518Z,47.97
2022-12-25T01:17:34.138Z,44.50
2022-12-25T01:20:00.786Z,44.13
2022-12-25T01:22:27.359Z,45.93
2022-12-25T01:24:53.827Z,42.60
2022-12-25T01:27:20.316Z,41.43
2022-12-25T01:29:46.843Z,39.70
2022-12-25T01:32:13.584Z,43.70
2022-12-25T01:34:40.303Z,47.43
2022-12-25T01:37:07.275Z,53.00
2022-12-25T01:39:33.919Z,54.93
2022-12-25T01:42:00.436Z,46.90
2022-12-25T01:44:35.709Z,43.20
2022-12-25T01:47:02.850Z,42.23
2022-12-25T01:49:29.654Z,42.90
2022-12-25T01:51:58.866Z,46.83
2022-12-25T01:54:28.384Z,45.03
2022-12-25T01:56:57.943Z,45.40
2022-12-25T01:59:26.057Z,52.13
2022-12-25T02:01:52.758Z,52.07
2022-12-25T02:04:23.798Z,50.30
2022-12-25T02:06:51.691Z,49.27
2022-12-25T02:09:18.823Z,47.93
2022-12-25T02:11:58.289Z,50.00
2022-12-25T02:14:25.445Z,46.63
2022-12-25T02:16:59.193Z,49.63
2022-12-25T02:19:34.880Z,53.13
2022-12-25T02:22:08.651Z,52.43
2022-12-25T02:24:35.086Z,50.23
2022-12-25T02:27:21.903Z,49.70
2022-12-25T02:29:59.763Z,42.67
2022-12-25T02:32:32.546Z,42.83
2022-12-25T02:35:13.055Z,43.43
2022-12-25T02:37:57.095Z,39.47
2022-12-25T02:40:28.285Z,42.83
2022-12-25T02:43:16.157Z,46.20
2022-12-25T02:46:04.076Z,42.37
2022-12-25T02:48:51.842Z,43.30
2022-12-25T02:51:38.647Z,44.53
2022-12-25T02:54:26.662Z,46.30
2022-12-25T02:57:12.826Z,45.57
2022-12-25T02:59:59.121Z,44.33
2022-12-25T03:02:46.839Z,43.40
2022-12-25T03:05:33.358Z,39.30
2022-12-25T03:08:02.528Z,45.50
2022-12-25T03:10:48.975Z,43.37
2022-12-25T03:13:19.092Z,46.50
2022-12-25T03:16:04.585Z,42.07
2022-12-25T03:18:31.513Z,41.90
2022-12-25T03:21:17.721Z,47.27
2022-12-25T03:24:13.492Z,43.77
2022-12-25T03:26:55.233Z,41.00
2022-12-25T03:29:58.177Z,42.13
2022-12-25T03:32:30.334Z,38.37
2022-12-25T03:35:21.311Z,37.33
2022-12-25T03:38:29.193Z,39.30
2022-12-25T03:41:23.362Z,45.90
2022-12-25T03:44:11.327Z,41.93
2022-12-25T03:47:01.113Z,35.43
2022-12-25T03:49:50.096Z,39.37
2022-12-25T03:52:36.371Z,42.00
2022-12-25T03:55:23.446Z,41.43
2022-12-25T03:58:08.610Z,40.77
2022-12-25T04:00:53.618Z,37.83
2022-12-25T04:03:38.736Z,30.77
2022-12-25T04:06:23.993Z,28.37
2022-12-25T04:09:08.832Z,28.53
2022-12-25T04:11:58.797Z,25.37
2022-12-25T04:15:03.878Z,24.70
2022-12-25T04:17:48.955Z,23.37
2022-12-25T04:20:34.022Z,21.47
2022-12-25T04:23:18.786Z,21.93
2022-12-25T04:26:03.935Z,20.90
2022-12-25T04:28:48.979Z,25.43
2022-12-25T04:31:34.279Z,23.93
2022-12-25T04:34:19.211Z,21.83
2022-12-25T04:36:45.651Z,27.33
2022-12-25T04:39:12.201Z,30.17
2022-12-25T04:41:38.669Z,26.00
2022-12-25T04:44:05.206Z,27.40
2022-12-25T04:46:31.698Z,26.90
2022-12-25T04:48:58.260Z,25.43
2022-12-25T04:51:25.357Z,24.00
2022-12-25T04:53:52.450Z,25.13
2022-12-25T04:56:19.895Z,26.33
2022-12-25T04:58:46.955Z,26.33
2022-12-25T05:01:14.021Z,25.50
2022-12-25T05:03:40.822Z,26.20
2022-12-25T05:06:07.776Z,22.63
2022-12-25T05:08:35.477Z,23.23
2022-12-25T05:11:05.871Z,19.73
2022-12-25T05:13:32.342Z,20.00
2022-12-25T05:15:58.858Z,19.87
2022-12-25T05:18:25.834Z,18.07
2022-12-25T05:20:55.372Z,17.10
2022-12-25T05:23:22.312Z,17.13
2022-12-25T05:25:48.961Z,15.60
2022-12-25T05:28:15.462Z,16.07
2022-12-25T05:30:41.960Z,15.77
2022-12-25T05:33:08.534Z,14.70
2022-12-25T05:35:37.511Z,13.27
2022-12-25T05:38:04.777Z,15.47
2022-12-25T05:40:31.605Z,18.23
2022-12-25T05:42:58.126Z,17.43
2022-12-25T05:45:24.573Z,20.43
2022-12-25T05:47:51.121Z,19.33
2022-12-25T05:50:17.699Z,19.40
2022-12-25T05:52:44.300Z,22.30
2022-12-25T05:55:10.847Z,19.27
2022-12-25T05:57:37.331Z,20.73
2022-12-25T06:00:04.797Z,21.50
2022-12-25T06:02:31.544Z,21.37
2022-12-25T06:04:58.132Z,19.43
2022-12-25T06:07:24.692Z,20.93
2022-12-25T06:09:51.376Z,18.60
2022-12-25T06:12:18.008Z,21.00
2022-12-25T06:14:44.539Z,19.83
2022-12-25T06:17:11.115Z,21.83
2022-12-25T06:19:37.775Z,19.03
2022-12-25T06:22:04.265Z,19.37
2022-12-25T06:24:30.903Z,22.00
2022-12-25T06:26:57.351Z,19.10
2022-12-25T06:29:23.877Z,17.93
2022-12-25T06:31:50.533Z,18.90
2022-12-25T06:34:17.167Z,16.80
2022-12-25T06:36:43.696Z,19.13
2022-12-25T06:39:10.257Z,18.27
2022-12-25T06:41:36.660Z,18.30
2022-12-25T06:44:03.094Z,18.93
2022-12-25T06:46:30.115Z,18.20
2022-12-25T06:48:57.898Z,13.80
2022-12-25T06:51:25.644Z,12.87
2022-12-25T06:53:53.069Z,13.67
2022-12-25T06:56:20.765Z,16.73
2022-12-25T06:58:54.729Z,17.03
2022-12-25T07:01:23.569Z,29.50
2022-12-25T07:03:51.576Z,77.87
2022-12-25T07:06:18.164Z,25.10
2022-12-25T07:08:44.768Z,18.90
2022-12-25T07:11:11.385Z,22.23
2022-12-25T07:13:37.924Z,24.23
2022-12-25T07:16:05.006Z,24.33
2022-12-25T07:18:32.001Z,23.50
2022-12-25T07:21:01.198Z,21.37
2022-12-25T07:23:27.764Z,20.63
2022-12-25T07:26:00.759Z,25.37
2022-12-25T07:28:27.399Z,21.13
2022-12-25T07:30:53.917Z,21.27
2022-12-25T07:33:20.408Z,19.87
2022-12-25T07:35:46.981Z,23.00
2022-12-25T07:38:13.434Z,21.30
2022-12-25T07:40:39.880Z,28.43
2022-12-25T07:43:06.525Z,63.97
2022-12-25T07:45:33.052Z,30.00
2022-12-25T07:48:04.895Z,22.17
2022-12-25T07:50:32.444Z,21.07
2022-12-25T07:53:00.275Z,22.40
2022-12-25T07:55:26.709Z,18.97
2022-12-25T07:57:53.400Z,24.23
2022-12-25T08:00:20.038Z,33.20
2022-12-25T08:02:49.045Z,39.77
2022-12-25T08:05:15.916Z,45.33
2022-12-25T08:07:42.351Z,64.57
2022-12-25T08:10:08.879Z,61.70
2022-12-25T08:12:35.400Z,58.87
2022-12-25T08:15:01.885Z,60.73
2022-12-25T08:17:28.549Z,54.47
2022-12-25T08:19:55.026Z,54.77
2022-12-25T08:22:21.473Z,51.37
2022-12-25T08:24:47.903Z,49.40
2022-12-25T08:27:14.356Z,47.60
2022-12-25T08:29:40.769Z,44.90
2022-12-25T08:32:07.195Z,41.27
2022-12-25T08:34:33.646Z,45.90
2022-12-25T08:37:00.078Z,52.23
2022-12-25T08:39:26.555Z,55.53
2022-12-25T08:41:52.992Z,86.37
2022-12-25T08:44:19.426Z,56.50
2022-12-25T08:46:45.909Z,56.63
2022-12-25T08:49:12.423Z,51.83
2022-12-25T08:51:39.139Z,43.50
2022-12-25T08:54:05.606Z,42.60
2022-12-25T08:56:32.724Z,39.93
2022-12-25T08:58:59.262Z,44.67
2022-12-25T09:01:28.782Z,40.60
2022-12-25T09:03:55.287Z,39.00
2022-12-25T09:06:21.770Z,38.83
2022-12-25T09:08:49.807Z,32.87
2022-12-25T09:11:16.953Z,34.53
2022-12-25T09:13:43.641Z,35.63
2022-12-25T09:16:11.992Z,33.10
2022-12-25T09:18:39.156Z,41.00
2022-12-25T09:21:07.704Z,37.77
2022-12-25T09:23:34.656Z,43.97
2022-12-25T09:26:06.107Z,38.37
2022-12-25T09:28:32.840Z,40.67
2022-12-25T09:30:59.542Z,38.57
2022-12-25T09:33:26.241Z,38.83
2022-12-25T09:35:56.529Z,39.47
2022-12-25T09:38:23.089Z,36.27
2022-12-25T09:40:57.559Z,39.13
2022-12-25T09:43:25.680Z,42.57
2022-12-25T09:45:52.204Z,37.93
2022-12-25T09:48:18.810Z,39.70
2022-12-25T09:51:06.007Z,37.07
2022-12-25T09:53:36.858Z,40.27
2022-12-25T09:56:06.458Z,47.00
2022-12-25T09:58:33.842Z,51.03
2022-12-25T10:01:12.955Z,68.37
2022-12-25T10:03:43.305Z,67.77
2022-12-25T10:06:19.089Z,66.37
2022-12-25T10:09:04.514Z,64.03
2022-12-25T10:11:40.927Z,62.20
2022-12-25T10:14:07.660Z,53.97
2022-12-25T10:16:37.175Z,46.30
2022-12-25T10:19:15.916Z,48.23
2022-12-25T10:21:42.798Z,49.37
2022-12-25T10:24:21.720Z,47.43
2022-12-25T10:26:50.080Z,49.90
2022-12-25T10:29:19.572Z,53.07
2022-12-25T10:31:48.283Z,54.00
2022-12-25T10:34:15.371Z,57.57
2022-12-25T10:36:43.757Z,60.03
2022-12-25T10:39:18.477Z,66.23
2022-12-25T10:41:45.203Z,63.10
2022-12-25T10:44:13.664Z,48.20
2022-12-25T10:46:40.868Z,48.13
2022-12-25T10:49:14.407Z,48.40
2022-12-25T10:51:40.981Z,52.00
2022-12-25T10:54:21.563Z,58.17
2022-12-25T10:57:02.503Z,59.27
2022-12-25T10:59:30.808Z,65.60
2022-12-25T11:02:04.486Z,67.57
2022-12-25T11:04:34.996Z,73.20
2022-12-25T11:07:07.737Z,79.93
2022-12-25T11:09:34.572Z,86.63
2022-12-25T11:12:01.612Z,94.43
2022-12-25T11:14:30.185Z,86.00
2022-12-25T11:17:07.338Z,75.50
2022-12-25T11:19:34.434Z,60.37
2022-12-25T11:22:02.456Z,44.00
2022-12-25T11:24:30.786Z,48.50
2022-12-25T11:26:59.192Z,41.83
2022-12-25T11:29:25.900Z,43.40
2022-12-25T11:31:56.204Z,44.07
2022-12-25T11:34:31.242Z,41.10
2022-12-25T11:36:59.129Z,41.03
2022-12-25T11:39:33.124Z,42.60
2022-12-25T11:42:12.290Z,49.67
2022-12-25T11:44:57.274Z,41.10
2022-12-25T11:47:28.671Z,41.70
2022-12-25T11:50:00.928Z,37.60
2022-12-25T11:52:29.858Z,35.00
2022-12-25T11:54:59.008Z,31.93
2022-12-25T11:57:27.455Z,28.13
2022-12-25T11:59:56.996Z,26.53
2022-12-25T12:02:26.927Z,24.87
2022-12-25T12:05:03.906Z,24.67
2022-12-25T12:07:32.492Z,22.20
2022-12-25T12:10:16.383Z,26.17
2022-12-25T12:12:49.349Z,29.87
2022-12-25T12:15:25.388Z,29.67
2022-12-25T12:17:52.010Z,31.73
2022-12-25T12:20:27.950Z,27.03
2022-12-25T12:22:57.172Z,29.67
2022-12-25T12:25:26.517Z,30.13
2022-12-25T12:28:05.942Z,74.07
2022-12-25T12:30:34.786Z,116.37
2022-12-25T12:33:02.803Z,48.73
2022-12-25T12:35:33.828Z,51.00
2022-12-25T12:38:05.301Z,94.40
2022-12-25T12:40:39.122Z,79.20
2022-12-25T12:43:08.219Z,78.30
2022-12-25T12:45:38.254Z,67.07
2022-12-25T12:48:14.965Z,60.63
2022-12-25T12:50:45.607Z,55.70
2022-12-25T12:53:24.187Z,60.53
2022-12-25T12:55:50.975Z,84.23
2022-12-25T12:58:33.710Z,86.67
2022-12-25T13:01:03.292Z,77.83
2022-12-25T13:03:47.838Z,83.80
2022-12-25T13:06:20.098Z,95.03
2022-12-25T13:08:49.485Z,90.77
2022-12-25T13:11:29.046Z,83.30
2022-12-25T13:13:57.498Z,72.53
2022-12-25T13:16:29.407Z,87.43
2022-12-25T13:18:57.115Z,105.07
2022-12-25T13:21:25.540Z,103.43
2022-12-25T13:24:15.725Z,85.37
2022-12-25T13:26:42.456Z,93.03
2022-12-25T13:29:19.157Z,137.27
2022-12-25T13:31:45.912Z,114.77
2022-12-25T13:34:23.778Z,180.10
2022-12-25T13:36:50.613Z,81.27
2022-12-25T13:39:17.842Z,69.67
2022-12-25T13:42:04.780Z,67.27
2022-12-25T13:44:36.978Z,53.03
2022-12-25T13:47:22.256Z,51.00
2022-12-25T13:49:49.611Z,50.93
2022-12-25T13:52:21.276Z,49.77
2022-12-25T13:55:01.517Z,55.63
2022-12-25T13:57:29.790Z,53.47
2022-12-25T13:59:56.691Z,56.20
2022-12-25T14:02:25.838Z,59.67
2022-12-25T14:04:52.341Z,57.17
2022-12-25T14:07:21.075Z,52.13
2022-12-25T14:09:48.503Z,55.23
2022-12-25T14:12:19.449Z,52.90
2022-12-25T14:14:46.831Z,56.13
2022-12-25T14:17:13.417Z,74.37
2022-12-25T14:19:39.995Z,73.87
2022-12-25T14:22:18.199Z,55.97
2022-12-25T14:24:44.832Z,50.13
2022-12-25T14:27:25.243Z,48.20
2022-12-25T14:29:54.711Z,51.77
2022-12-25T14:32:22.739Z,52.10
2022-12-25T14:34:52.325Z,52.20
2022-12-25T14:37:23.989Z,54.23
2022-12-25T14:40:06.635Z,54.67
2022-12-25T14:42:35.219Z,49.00
2022-12-25T14:45:06.922Z,54.40
2022-12-25T14:47:39.496Z,53.20
2022-12-25T14:50:16.055Z,56.73
2022-12-25T14:52:43.815Z,55.80
2022-12-25T14:55:29.626Z,68.53
2022-12-25T14:57:58.724Z,63.27
2022-12-25T15:00:33.123Z,53.47
2022-12-25T15:03:00.176Z,59.03
2022-12-25T15:05:29.237Z,64.57
2022-12-25T15:08:13.831Z,66.33
2022-12-25T15:13:28.102Z,56.93
2022-12-25T15:15:58.014Z,63.33
2022-12-25T15:18:26.404Z,63.73
2022-12-25T15:20:53.163Z,55.87
2022-12-25T15:23:20.707Z,52.87
2022-12-25T15:25:48.110Z,51.47
2022-12-25T15:28:14.926Z,47.63
2022-12-25T15:30:41.569Z,60.47
2022-12-25T15:33:13.119Z,48.83
2022-12-25T15:35:39.989Z,46.27
2022-12-25T15:38:06.855Z,49.27
2022-12-25T15:40:33.815Z,45.80
2022-12-25T15:43:00.640Z,47.33
2022-12-25T15:45:28.538Z,43.73
2022-12-25T15:47:55.253Z,42.87
2022-12-25T15:50:22.014Z,47.37
2022-12-25T15:52:50.953Z,45.90
2022-12-25T15:55:18.249Z,44.63
2022-12-25T15:57:45.683Z,46.80
2022-12-25T16:00:17.542Z,46.90
2022-12-25T16:02:44.803Z,48.20
2022-12-25T16:05:12.066Z,45.47
2022-12-25T16:07:39.334Z,44.13
2022-12-25T16:10:07.355Z,43.60
2022-12-25T16:12:34.136Z,40.50
2022-12-25T16:15:00.870Z,39.67
2022-12-25T16:17:27.524Z,48.37
2022-12-25T16:19:53.995Z,45.17
2022-12-25T16:22:25.896Z,40.80
2022-12-25T16:24:52.741Z,44.00
2022-12-25T16:27:19.590Z,44.93
2022-12-25T16:29:46.024Z,45.93
2022-12-25T16:32:13.161Z,46.23
2022-12-25T16:34:40.666Z,43.13
2022-12-25T16:37:07.450Z,46.07
2022-12-25T16:39:33.998Z,42.77
2022-12-25T16:42:00.731Z,40.50
2022-12-25T16:44:27.428Z,42.37
2022-12-25T16:46:54.059Z,41.63
2022-12-25T16:49:20.570Z,45.70
2022-12-25T16:51:47.019Z,44.60
2022-12-25T16:54:14.111Z,43.33
2022-12-25T16:56:40.627Z,41.87
2022-12-25T16:59:07.119Z,38.17
2022-12-25T17:01:34.105Z,41.10
2022-12-25T17:04:03.865Z,38.97
2022-12-25T17:06:30.804Z,38.10
2022-12-25T17:08:59.303Z,38.47
2022-12-25T17:11:29.771Z,34.50
2022-12-25T17:13:57.519Z,43.90
2022-12-25T17:16:25.581Z,40.83
2022-12-25T17:18:56.186Z,36.77
2022-12-25T17:21:23.264Z,40.33
2022-12-25T17:23:49.827Z,36.00
2022-12-25T17:26:16.494Z,41.30
2022-12-25T17:28:43.088Z,37.60
2022-12-25T17:31:10.525Z,37.77
2022-12-25T17:33:38.080Z,36.30
2022-12-25T17:36:05.998Z,37.87
2022-12-25T17:38:33.182Z,39.70
2022-12-25T17:41:00.663Z,39.47
2022-12-25T17:43:27.466Z,38.43
2022-12-25T17:45:55.831Z,43.37
2022-12-25T17:48:22.681Z,42.50
2022-12-25T17:50:49.470Z,35.60
2022-12-25T17:53:16.269Z,39.70
2022-12-25T17:55:43.571Z,39.87
2022-12-25T17:58:10.470Z,38.30
2022-12-25T18:00:37.468Z,38.03
2022-12-25T18:03:11.129Z,40.87
2022-12-25T18:05:38.544Z,38.20
2022-12-25T18:08:05.395Z,40.00
2022-12-25T18:10:37.608Z,38.90
2022-12-25T18:13:04.558Z,37.70
2022-12-25T18:15:31.635Z,38.37
2022-12-25T18:17:58.354Z,38.33
2022-12-25T18:20:26.058Z,36.70
2022-12-25T18:22:52.702Z,38.63
2022-12-25T18:25:19.485Z,40.37
2022-12-25T18:27:46.247Z,37.23
2022-12-25T18:30:13.022Z,41.43
2022-12-25T18:32:39.593Z,40.27
2022-12-25T18:35:06.264Z,39.33
2022-12-25T18:37:39.654Z,38.67
2022-12-25T18:40:06.993Z,37.63
2022-12-25T18:42:39.705Z,38.93
2022-12-25T18:45:11.738Z,41.27
2022-12-25T18:47:38.757Z,43.83
2022-12-25T18:50:06.077Z,39.87
2022-12-25T18:52:49.217Z,39.97
2022-12-25T18:55:18.037Z,38.30
2022-12-25T18:57:45.203Z,39.10
2022-12-25T19:00:11.953Z,38.70
2022-12-25T19:02:38.842Z,37.97
2022-12-25T19:05:06.125Z,40.30
2022-12-25T19:07:32.793Z,39.23
2022-12-25T19:09:59.382Z,41.30
2022-12-25T19:12:26.217Z,37.10
2022-12-25T19:14:53.029Z,37.70
2022-12-25T19:17:19.886Z,44.50
2022-12-25T19:19:46.554Z,36.50
2022-12-25T19:22:13.238Z,38.30
2022-12-25T19:24:40.330Z,38.67
2022-12-25T19:27:07.329Z,38.37
2022-12-25T19:29:34.008Z,41.30
2022-12-25T19:32:00.914Z,40.23
2022-12-25T19:34:27.812Z,38.20
2022-12-25T19:36:54.443Z,37.77
2022-12-25T19:39:21.135Z,41.90
2022-12-25T19:41:48.125Z,35.97
2022-12-25T19:44:14.886Z,39.43
2022-12-25T19:46:42.003Z,33.67
2022-12-25T19:49:11.777Z,37.17
2022-12-25T19:51:40.692Z,37.83
2022-12-25T19:54:07.837Z,35.70
2022-12-25T19:56:35.058Z,35.67
2022-12-25T19:59:02.115Z,35.80
2022-12-25T20:01:30.839Z,31.57
2022-12-25T20:03:58.156Z,32.90
2022-12-25T20:06:26.980Z,28.93
2022-12-25T20:08:55.045Z,30.73
2022-12-25T20:11:22.551Z,30.10
2022-12-25T20:13:49.572Z,30.37
2022-12-25T20:16:16.453Z,30.03
2022-12-25T20:18:43.329Z,28.50
2022-12-25T20:21:16.500Z,30.83
2022-12-25T20:23:43.747Z,30.90
2022-12-25T20:26:10.948Z,30.67
2022-12-25T20:28:39.378Z,72.83
2022-12-25T20:31:07.257Z,57.50
2022-12-25T20:33:35.501Z,29.93
2022-12-25T20:36:03.512Z,31.30
2022-12-25T20:38:30.792Z,28.60
2022-12-25T20:43:52.595Z,28.37
2022-12-25T20:46:19.802Z,75.57
2022-12-25T20:48:47.233Z,35.43
2022-12-25T20:51:18.356Z,32.00
2022-12-25T20:53:45.737Z,29.50
2022-12-25T20:56:13.630Z,28.77
2022-12-25T20:58:40.853Z,33.97
2022-12-25T21:01:09.191Z,31.20
2022-12-25T21:03:36.282Z,30.07
2022-12-25T21:06:03.139Z,30.33
2022-12-25T21:08:29.981Z,28.67
2022-12-25T21:11:00.892Z,29.30
2022-12-25T21:13:31.815Z,24.83
2022-12-25T21:15:59.232Z,26.57
2022-12-25T21:18:27.201Z,26.23
2022-12-25T21:20:55.287Z,26.37
2022-12-25T21:23:22.400Z,25.47
2022-12-25T21:25:49.467Z,28.37
2022-12-25T21:28:16.398Z,27.77
2022-12-25T21:30:43.191Z,29.10
2022-12-25T21:33:31.445Z,30.83
2022-12-25T21:36:05.266Z,31.20
2022-12-25T21:38:32.090Z,32.37
2022-12-25T21:41:02.824Z,31.07
2022-12-25T21:43:29.431Z,30.03
2022-12-25T21:45:56.142Z,30.03
2022-12-25T21:48:22.705Z,29.90
2022-12-25T21:51:08.324Z,36.43
2022-12-25T21:53:34.830Z,32.93
2022-12-25T21:56:05.830Z,29.77
2022-12-25T21:58:32.427Z,32.10
2022-12-25T22:01:03.433Z,32.67
2022-12-25T22:03:30.038Z,31.20
2022-12-25T22:06:21.314Z,30.53
2022-12-25T22:08:48.300Z,28.97
2022-12-25T22:11:33.208Z,30.37
2022-12-25T22:14:18.411Z,31.57
2022-12-25T22:17:03.287Z,31.37
2022-12-25T22:19:45.413Z,29.87
2022-12-25T22:22:13.486Z,29.30
2022-12-25T22:24:40.038Z,30.57
2022-12-25T22:27:06.756Z,31.57
2022-12-25T22:29:33.286Z,32.07
2022-12-25T22:32:00.108Z,35.37
2022-12-25T22:34:26.895Z,31.77
2022-12-25T22:36:53.582Z,33.27
2022-12-25T22:39:20.185Z,36.03
2022-12-25T22:41:46.823Z,35.70
2022-12-25T22:44:17.861Z,34.03
2022-12-25T22:46:44.908Z,35.93
2022-12-25T22:49:11.798Z,33.90
2022-12-25T22:51:38.318Z,38.70
2022-12-25T22:54:04.906Z,34.30
2022-12-25T22:56:31.541Z,34.90
2022-12-25T22:58:57.998Z,37.43
2022-12-25T23:01:24.825Z,35.00
2022-12-25T23:03:54.758Z,35.20
2022-12-25T23:06:21.695Z,39.83
2022-12-25T23:08:48.727Z,39.60
2022-12-25T23:11:15.281Z,34.97
2022-12-25T23:14:03.092Z,33.67
2022-12-25T23:16:29.937Z,36.73
2022-12-25T23:19:15.282Z,34.47
2022-12-25T23:22:01.014Z,36.43
2022-12-25T23:24:45.953Z,36.33
2022-12-25T23:27:12.934Z,34.43
2022-12-25T23:29:40.082Z,34.97
2022-12-25T23:32:08.626Z,38.20
2022-12-25T23:34:35.914Z,38.67
2022-12-25T23:37:02.545Z,35.90
2022-12-25T23:39:29.080Z,36.47
2022-12-25T23:41:55.781Z,37.13
2022-12-25T23:44:22.307Z,37.53
2022-12-25T23:46:52.768Z,36.13
2022-12-25T23:49:20.249Z,38.90
2022-12-25T23:51:46.887Z,36.87
2022-12-25T23:54:15.426Z,35.47
2022-12-25T23:56:42.318Z,36.13
2022-12-25T23:59:08.827Z,37.67
